Macondo — 3EYB9 — position and weather

sailwx.info

Track history (hours):
 
Tides and Currents Weather Stations Pressure Air Temp Water Temp Dewpoint Dewpoint Depression Visibility Wind Speed Wind Dir Waves Ship Positions

Macondo

Last reported at 2017-Feb-09 04:32 UTC. Time now 2017-Feb-21 12:15 UTC.
Position N 29°30' W 094°52'.
Warning: this ship's position is 12 days out of date.

Length 120 m; draft 6.2 m.

Type: Ship. MMSI: 371293000.

Date/timePositionNaut miles runAvg speedWind from/ knotsBaromVisibWave heightAir tempDewpointWater temp
2017-Feb-09 04:32N 29°30' W 094°52'1010.3
2017-Feb-09 03:33N 29°39' W 094°58'9 8.8
2017-Feb-09 02:33N 29°46' W 095°05'2 2.4
2017-Feb-09 01:33N 29°44' W 095°07'0 0.0
2017-Feb-09 00:33N 29°44' W 095°07'0 0.0
2017-Feb-08 23:33N 29°44' W 095°07'0 0.0
2017-Feb-08 22:33N 29°44' W 095°07'0 0.0
2017-Feb-08 21:33N 29°44' W 095°07'0 0.0
2017-Feb-08 20:33N 29°44' W 095°07'0 0.0
2017-Feb-08 19:33N 29°44' W 095°07'0 0.0
2017-Feb-08 18:33N 29°44' W 095°07'0 0.0
2017-Feb-08 17:21N 29°44' W 095°07'0 0.0
2017-Feb-08 16:33N 29°44' W 095°07'0 0.0
2017-Feb-08 15:33N 29°44' W 095°07'0 0.0
2017-Feb-08 14:33N 29°44' W 095°07'0 0.0
2017-Feb-08 13:27N 29°44' W 095°07'0 0.0
2017-Feb-08 00:10N 29°44' W 095°07'0 0.0
2017-Feb-07 23:33N 29°44' W 095°07'0 0.0
2017-Feb-07 22:33N 29°44' W 095°07'0 0.0
2017-Feb-07 21:33N 29°44' W 095°07'0 0.0
2017-Feb-07 20:33N 29°44' W 095°07'0 0.0
2017-Feb-07 19:33N 29°44' W 095°07'0 0.0
2017-Feb-07 18:32N 29°44' W 095°07'0 0.0
2017-Feb-07 17:30N 29°44' W 095°07'0 0.0
2017-Feb-07 16:33N 29°44' W 095°07'0 0.0
2017-Feb-07 15:30N 29°44' W 095°07'0 0.0
2017-Feb-07 14:32N 29°44' W 095°07'0 0.0
2017-Feb-07 13:33N 29°44' W 095°07'0 0.0
2017-Feb-07 00:04N 29°44' W 095°07'0 0.0
2017-Feb-06 23:32N 29°44' W 095°07'0 0.0
2017-Feb-06 22:33N 29°44' W 095°07'0 0.0
2017-Feb-06 21:33N 29°44' W 095°07'0 0.0
2017-Feb-06 20:33N 29°44' W 095°07'0 0.0
2017-Feb-06 19:33N 29°44' W 095°07'0 0.0
2017-Feb-06 18:33N 29°44' W 095°07'0 0.0
2017-Feb-06 17:33N 29°44' W 095°07'0 0.0
2017-Feb-06 16:33N 29°44' W 095°07'0 0.0
2017-Feb-06 15:34N 29°44' W 095°07'0 0.0
2017-Feb-06 14:33N 29°44' W 095°07'0 0.0
2017-Feb-06 13:33N 29°44' W 095°07'0 0.0
2017-Feb-06 01:04N 29°44' W 095°07'3 3.7
2017-Feb-06 00:12N 29°44' W 095°03'5 8.3
2017-Feb-05 23:33N 29°41' W 094°59'9 9.2
2017-Feb-05 22:33N 29°32' W 094°54'  
2017-Feb-03 06:31N 19°33' W 095°56'1010.2
2017-Feb-03 05:33N 19°23' W 095°58'1010.1
2017-Feb-03 04:33N 19°13' W 095°58'8 8.5
2017-Feb-03 03:33N 19°12' W 096°07'1 1.4
2017-Feb-03 02:33N 19°13' W 096°08'0 0.0
2017-Feb-03 01:33N 19°13' W 096°08'0 0.0
2017-Feb-03 00:33N 19°13' W 096°08'0 0.0
2017-Feb-02 23:34N 19°13' W 096°08'0 0.0
2017-Feb-02 22:33N 19°13' W 096°08'0 0.0
2017-Feb-02 21:34N 19°13' W 096°08'0 0.0
2017-Feb-02 20:34N 19°13' W 096°08'0 0.0
2017-Feb-02 19:33N 19°13' W 096°08'0 0.0
2017-Feb-02 18:34N 19°13' W 096°08'0 0.0
2017-Feb-02 17:33N 19°13' W 096°08'0 0.0
2017-Feb-02 16:33N 19°13' W 096°08'0 0.0
2017-Feb-02 15:33N 19°13' W 096°08'0 0.0
2017-Feb-02 14:34N 19°13' W 096°08'0 0.0
2017-Feb-02 13:33N 19°13' W 096°08'0 0.0
2017-Feb-02 12:33N 19°13' W 096°08'0 0.0
2017-Feb-02 11:33N 19°13' W 096°08'0 0.0
2017-Feb-02 10:33N 19°13' W 096°08'0 0.0
2017-Feb-02 09:33N 19°13' W 096°08'0 0.0
2017-Feb-02 08:33N 19°13' W 096°08'0 0.0
2017-Feb-02 07:33N 19°13' W 096°08'0 0.0
2017-Feb-02 06:33N 19°13' W 096°08'0 0.0
2017-Feb-02 05:33N 19°13' W 096°08'0 0.0
2017-Feb-02 04:33N 19°13' W 096°08'0 0.0
2017-Feb-02 03:34N 19°13' W 096°08'0 0.0
2017-Feb-02 02:33N 19°13' W 096°08'0 0.0
2017-Feb-02 01:34N 19°13' W 096°08'0 0.0
2017-Feb-02 00:34N 19°13' W 096°08'0 0.0
2017-Feb-01 23:34N 19°13' W 096°08'0 0.0
2017-Feb-01 21:05N 19°13' W 096°08'0 0.0
2017-Feb-01 20:33N 19°13' W 096°08'0 0.0
2017-Feb-01 19:34N 19°13' W 096°08'0 0.0
2017-Feb-01 18:34N 19°13' W 096°08'0 0.0
2017-Feb-01 17:33N 19°13' W 096°08'0 0.0
2017-Feb-01 16:33N 19°13' W 096°08'0 0.0
2017-Feb-01 15:33N 19°13' W 096°08'0 0.0
2017-Feb-01 14:33N 19°13' W 096°08'0 0.0
2017-Feb-01 12:33N 19°13' W 096°08'0 0.0
2017-Feb-01 11:33N 19°13' W 096°08'0 0.0
2017-Feb-01 10:33N 19°13' W 096°08'0 0.0
2017-Feb-01 09:33N 19°13' W 096°08'0 0.0
2017-Feb-01 08:34N 19°13' W 096°08'0 0.0
2017-Feb-01 07:34N 19°13' W 096°08'0 0.0
2017-Feb-01 06:34N 19°13' W 096°08'0 0.0
2017-Feb-01 05:33N 19°13' W 096°08'0 0.0
2017-Feb-01 04:33N 19°13' W 096°08'0 0.0
2017-Feb-01 03:33N 19°13' W 096°08'0 0.0
2017-Feb-01 02:34N 19°13' W 096°08'0 0.0
2017-Feb-01 01:34N 19°13' W 096°08'0 0.0
2017-Feb-01 00:34N 19°13' W 096°08'0 0.0
2017-Jan-31 23:33N 19°13' W 096°08'0 0.0
2017-Jan-31 22:34N 19°13' W 096°08'0 0.0
2017-Jan-31 21:34N 19°13' W 096°08'0 0.0
2017-Jan-31 20:34N 19°13' W 096°08'0 0.0
2017-Jan-31 19:34N 19°13' W 096°08'0 0.0
2017-Jan-31 18:34N 19°13' W 096°08'0 0.0
2017-Jan-31 17:34N 19°13' W 096°08'0 0.0
2017-Jan-31 16:33N 19°13' W 096°08'0 0.0
2017-Jan-31 15:34N 19°13' W 096°08'0 0.0
2017-Jan-31 14:34N 19°13' W 096°08'0 0.0
2017-Jan-31 13:33N 19°13' W 096°08'0 0.0
2017-Jan-31 12:33N 19°13' W 096°08'0 0.0
2017-Jan-31 11:33N 19°13' W 096°08'0 0.0
2017-Jan-31 10:34N 19°13' W 096°08'0 0.0
2017-Jan-31 09:33N 19°13' W 096°08'0 0.0
2017-Jan-31 08:33N 19°13' W 096°08'0 0.0
2017-Jan-31 07:34N 19°13' W 096°08'0 0.0
2017-Jan-31 06:33N 19°13' W 096°08'0 0.0
2017-Jan-31 05:33N 19°13' W 096°08'0 0.0
2017-Jan-31 04:33N 19°13' W 096°08'0 0.0
2017-Jan-31 03:33N 19°13' W 096°08'0 0.0
2017-Jan-31 02:33N 19°13' W 096°08'0 0.0
2017-Jan-31 01:33N 19°13' W 096°08'0 0.0
2017-Jan-31 00:33N 19°13' W 096°08'0 0.0
2017-Jan-30 23:33N 19°13' W 096°08'0 0.0
2017-Jan-30 22:33N 19°13' W 096°08'0 0.0
2017-Jan-30 21:33N 19°13' W 096°08'0 0.0
2017-Jan-30 20:33N 19°13' W 096°08'0 0.0
2017-Jan-30 19:33N 19°13' W 096°08'0 0.0
2017-Jan-30 18:33N 19°13' W 096°08'0 0.0
2017-Jan-30 17:33N 19°13' W 096°08'0 0.0
2017-Jan-30 16:33N 19°13' W 096°08'0 0.0
2017-Jan-30 15:33N 19°13' W 096°08'0 0.0
2017-Jan-30 14:33N 19°13' W 096°08'0 0.0
2017-Jan-30 13:33N 19°13' W 096°08'0 0.0
2017-Jan-30 12:33N 19°13' W 096°08'0 0.0
2017-Jan-30 11:33N 19°13' W 096°08'0 0.0
2017-Jan-30 10:33N 19°13' W 096°08'0 0.0
2017-Jan-30 09:33N 19°13' W 096°08'0 0.0
2017-Jan-30 08:33N 19°13' W 096°08'0 0.0
2017-Jan-30 07:33N 19°13' W 096°08'0 0.0
2017-Jan-30 06:33N 19°13' W 096°08'0 0.0
2017-Jan-30 05:33N 19°13' W 096°08'0 0.0
2017-Jan-30 04:34N 19°13' W 096°08'  
Track history (hours):
 
Tides and Currents Weather Stations Pressure Air Temp Water Temp Dewpoint Dewpoint Depression Visibility Wind Speed Wind Dir Waves Ship Positions

Macondo

Last reported at 2017-Feb-09 04:32 UTC. Time now 2017-Feb-21 12:15 UTC.
Position N 29°30' W 094°52'.
Warning: this ship's position is 12 days out of date.

Length 120 m; draft 6.2 m.

Type: Ship. MMSI: 371293000.

Date/timePositionNaut miles runAvg speedWind from/ knotsBaromVisibWave heightAir tempDewpointWater temp
2017-Feb-09 04:32N 29°30' W 094°52'1010.3
2017-Feb-09 03:33N 29°39' W 094°58'9 8.8
2017-Feb-09 02:33N 29°46' W 095°05'2 2.4
2017-Feb-09 01:33N 29°44' W 095°07'0 0.0
2017-Feb-09 00:33N 29°44' W 095°07'0 0.0
2017-Feb-08 23:33N 29°44' W 095°07'0 0.0
2017-Feb-08 22:33N 29°44' W 095°07'0 0.0
2017-Feb-08 21:33N 29°44' W 095°07'0 0.0
2017-Feb-08 20:33N 29°44' W 095°07'0 0.0
2017-Feb-08 19:33N 29°44' W 095°07'0 0.0
2017-Feb-08 18:33N 29°44' W 095°07'0 0.0
2017-Feb-08 17:21N 29°44' W 095°07'0 0.0
2017-Feb-08 16:33N 29°44' W 095°07'0 0.0
2017-Feb-08 15:33N 29°44' W 095°07'0 0.0
2017-Feb-08 14:33N 29°44' W 095°07'0 0.0
2017-Feb-08 13:27N 29°44' W 095°07'0 0.0
2017-Feb-08 00:10N 29°44' W 095°07'0 0.0
2017-Feb-07 23:33N 29°44' W 095°07'0 0.0
2017-Feb-07 22:33N 29°44' W 095°07'0 0.0
2017-Feb-07 21:33N 29°44' W 095°07'0 0.0
2017-Feb-07 20:33N 29°44' W 095°07'0 0.0
2017-Feb-07 19:33N 29°44' W 095°07'0 0.0
2017-Feb-07 18:32N 29°44' W 095°07'0 0.0
2017-Feb-07 17:30N 29°44' W 095°07'0 0.0
2017-Feb-07 16:33N 29°44' W 095°07'0 0.0
2017-Feb-07 15:30N 29°44' W 095°07'0 0.0
2017-Feb-07 14:32N 29°44' W 095°07'0 0.0
2017-Feb-07 13:33N 29°44' W 095°07'0 0.0
2017-Feb-07 00:04N 29°44' W 095°07'0 0.0
2017-Feb-06 23:32N 29°44' W 095°07'0 0.0
2017-Feb-06 22:33N 29°44' W 095°07'0 0.0
2017-Feb-06 21:33N 29°44' W 095°07'0 0.0
2017-Feb-06 20:33N 29°44' W 095°07'0 0.0
2017-Feb-06 19:33N 29°44' W 095°07'0 0.0
2017-Feb-06 18:33N 29°44' W 095°07'0 0.0
2017-Feb-06 17:33N 29°44' W 095°07'0 0.0
2017-Feb-06 16:33N 29°44' W 095°07'0 0.0
2017-Feb-06 15:34N 29°44' W 095°07'0 0.0
2017-Feb-06 14:33N 29°44' W 095°07'0 0.0
2017-Feb-06 13:33N 29°44' W 095°07'0 0.0
2017-Feb-06 01:04N 29°44' W 095°07'3 3.7
2017-Feb-06 00:12N 29°44' W 095°03'5 8.3
2017-Feb-05 23:33N 29°41' W 094°59'9 9.2
2017-Feb-05 22:33N 29°32' W 094°54'  
2017-Feb-03 06:31N 19°33' W 095°56'1010.2
2017-Feb-03 05:33N 19°23' W 095°58'1010.1
2017-Feb-03 04:33N 19°13' W 095°58'8 8.5
2017-Feb-03 03:33N 19°12' W 096°07'1 1.4
2017-Feb-03 02:33N 19°13' W 096°08'0 0.0
2017-Feb-03 01:33N 19°13' W 096°08'0 0.0
2017-Feb-03 00:33N 19°13' W 096°08'0 0.0
2017-Feb-02 23:34N 19°13' W 096°08'0 0.0
2017-Feb-02 22:33N 19°13' W 096°08'0 0.0
2017-Feb-02 21:34N 19°13' W 096°08'0 0.0
2017-Feb-02 20:34N 19°13' W 096°08'0 0.0
2017-Feb-02 19:33N 19°13' W 096°08'0 0.0
2017-Feb-02 18:34N 19°13' W 096°08'0 0.0
2017-Feb-02 17:33N 19°13' W 096°08'0 0.0
2017-Feb-02 16:33N 19°13' W 096°08'0 0.0
2017-Feb-02 15:33N 19°13' W 096°08'0 0.0
2017-Feb-02 14:34N 19°13' W 096°08'0 0.0
2017-Feb-02 13:33N 19°13' W 096°08'0 0.0
2017-Feb-02 12:33N 19°13' W 096°08'0 0.0
2017-Feb-02 11:33N 19°13' W 096°08'0 0.0
2017-Feb-02 10:33N 19°13' W 096°08'0 0.0
2017-Feb-02 09:33N 19°13' W 096°08'0 0.0
2017-Feb-02 08:33N 19°13' W 096°08'0 0.0
2017-Feb-02 07:33N 19°13' W 096°08'0 0.0
2017-Feb-02 06:33N 19°13' W 096°08'0 0.0
2017-Feb-02 05:33N 19°13' W 096°08'0 0.0
2017-Feb-02 04:33N 19°13' W 096°08'0 0.0
2017-Feb-02 03:34N 19°13' W 096°08'0 0.0
2017-Feb-02 02:33N 19°13' W 096°08'0 0.0
2017-Feb-02 01:34N 19°13' W 096°08'0 0.0
2017-Feb-02 00:34N 19°13' W 096°08'0 0.0
2017-Feb-01 23:34N 19°13' W 096°08'0 0.0
2017-Feb-01 21:05N 19°13' W 096°08'0 0.0
2017-Feb-01 20:33N 19°13' W 096°08'0 0.0
2017-Feb-01 19:34N 19°13' W 096°08'0 0.0
2017-Feb-01 18:34N 19°13' W 096°08'0 0.0
2017-Feb-01 17:33N 19°13' W 096°08'0 0.0
2017-Feb-01 16:33N 19°13' W 096°08'0 0.0
2017-Feb-01 15:33N 19°13' W 096°08'0 0.0
2017-Feb-01 14:33N 19°13' W 096°08'0 0.0
2017-Feb-01 12:33N 19°13' W 096°08'0 0.0
2017-Feb-01 11:33N 19°13' W 096°08'0 0.0
2017-Feb-01 10:33N 19°13' W 096°08'0 0.0
2017-Feb-01 09:33N 19°13' W 096°08'0 0.0
2017-Feb-01 08:34N 19°13' W 096°08'0 0.0
2017-Feb-01 07:34N 19°13' W 096°08'0 0.0
2017-Feb-01 06:34N 19°13' W 096°08'0 0.0
2017-Feb-01 05:33N 19°13' W 096°08'0 0.0
2017-Feb-01 04:33N 19°13' W 096°08'0 0.0
2017-Feb-01 03:33N 19°13' W 096°08'0 0.0
2017-Feb-01 02:34N 19°13' W 096°08'0 0.0
2017-Feb-01 01:34N 19°13' W 096°08'0 0.0
2017-Feb-01 00:34N 19°13' W 096°08'0 0.0
2017-Jan-31 23:33N 19°13' W 096°08'0 0.0
2017-Jan-31 22:34N 19°13' W 096°08'0 0.0
2017-Jan-31 21:34N 19°13' W 096°08'0 0.0
2017-Jan-31 20:34N 19°13' W 096°08'0 0.0
2017-Jan-31 19:34N 19°13' W 096°08'0 0.0
2017-Jan-31 18:34N 19°13' W 096°08'0 0.0
2017-Jan-31 17:34N 19°13' W 096°08'0 0.0
2017-Jan-31 16:33N 19°13' W 096°08'0 0.0
2017-Jan-31 15:34N 19°13' W 096°08'0 0.0
2017-Jan-31 14:34N 19°13' W 096°08'0 0.0
2017-Jan-31 13:33N 19°13' W 096°08'0 0.0
2017-Jan-31 12:33N 19°13' W 096°08'0 0.0
2017-Jan-31 11:33N 19°13' W 096°08'0 0.0
2017-Jan-31 10:34N 19°13' W 096°08'0 0.0
2017-Jan-31 09:33N 19°13' W 096°08'0 0.0
2017-Jan-31 08:33N 19°13' W 096°08'0 0.0
2017-Jan-31 07:34N 19°13' W 096°08'0 0.0
2017-Jan-31 06:33N 19°13' W 096°08'0 0.0
2017-Jan-31 05:33N 19°13' W 096°08'0 0.0
2017-Jan-31 04:33N 19°13' W 096°08'0 0.0
2017-Jan-31 03:33N 19°13' W 096°08'0 0.0
2017-Jan-31 02:33N 19°13' W 096°08'0 0.0
2017-Jan-31 01:33N 19°13' W 096°08'0 0.0
2017-Jan-31 00:33N 19°13' W 096°08'0 0.0
2017-Jan-30 23:33N 19°13' W 096°08'0 0.0
2017-Jan-30 22:33N 19°13' W 096°08'0 0.0
2017-Jan-30 21:33N 19°13' W 096°08'0 0.0
2017-Jan-30 20:33N 19°13' W 096°08'0 0.0
2017-Jan-30 19:33N 19°13' W 096°08'0 0.0
2017-Jan-30 18:33N 19°13' W 096°08'0 0.0
2017-Jan-30 17:33N 19°13' W 096°08'0 0.0
2017-Jan-30 16:33N 19°13' W 096°08'0 0.0
2017-Jan-30 15:33N 19°13' W 096°08'0 0.0
2017-Jan-30 14:33N 19°13' W 096°08'0 0.0
2017-Jan-30 13:33N 19°13' W 096°08'0 0.0
2017-Jan-30 12:33N 19°13' W 096°08'0 0.0
2017-Jan-30 11:33N 19°13' W 096°08'0 0.0
2017-Jan-30 10:33N 19°13' W 096°08'0 0.0
2017-Jan-30 09:33N 19°13' W 096°08'0 0.0
2017-Jan-30 08:33N 19°13' W 096°08'0 0.0
2017-Jan-30 07:33N 19°13' W 096°08'0 0.0
2017-Jan-30 06:33N 19°13' W 096°08'0 0.0
2017-Jan-30 05:33N 19°13' W 096°08'0 0.0
2017-Jan-30 04:34N 19°13' W 096°08'  

Dump ship's entire track history